• Join FlightAware (Why Join?)
  • Login
  • US Flag 
03:53AM EDT


 

Airport Tracker/Info


-or-


 

Live Flight TrackerFlight Track Log ✈ LIA521 ✈ 15-May-2013 ✈ TBPB / BGI - SYCJ / GEO

Flight Track Log - Related Links

Times and Time Zones

All times are in EDT time to prevent confusion due to time zone crossing. See the LIA521 flight status page for this flight to view local times or setup timezone preferences in your user account.

Time Position Orientation Groundspeed Altitude Reporting Facility
EDT Latitude Longitude Course Direction KTS MPH feet Rate Location/Type
01:08PM 11.5373 -59.1982 169° South  Level Estimated
01:09PM 11.4758 -59.1865 169° South  Level Estimated
01:10PM 11.4143 -59.1748 169° South  Level Estimated
01:11PM 11.3528 -59.1631 169° South  Level Estimated
01:12PM 11.2913 -59.1514 169° South  Level Estimated
01:13PM 11.2298 -59.1397 169° South  Level Estimated
01:14PM 11.1683 -59.1281 169° South  Level Estimated
01:15PM 11.1068 -59.1164 169° South  Level Estimated
01:16PM 11.0453 -59.1047 169° South  Level Estimated
01:17PM 10.9838 -59.0931 169° South  Level Estimated
01:18PM 10.9223 -59.0814 169° South  Level Estimated
01:19PM 10.8608 -59.0698 169° South  Level Estimated
01:20PM 10.7992 -59.0581 169° South  Level Estimated
01:21PM 10.7377 -59.0465 169° South  Level Estimated
01:22PM 10.6762 -59.0348 169° South  Level Estimated
01:23PM 10.6147 -59.0232 169° South  Level Estimated
01:24PM 10.5532 -59.0116 169° South  Level Estimated
01:25PM 10.4917 -58.9999 169° South  Level Estimated
01:26PM 10.4302 -58.9883 169° South  Level Estimated
01:27PM 10.3687 -58.9767 169° South  Level Estimated
01:28PM 10.3072 -58.9651 169° South  Level Estimated
01:29PM 10.2457 -58.9535 169° South  Level Estimated
01:30PM 10.1841 -58.9419 169° South  Level Estimated
01:31PM 10.1226 -58.9303 169° South  Level Estimated
01:32PM 10.0611 -58.9187 169° South  Level Estimated
01:33PM 9.9996 -58.9071 169° South  Level Estimated
01:34PM 9.9381 -58.8955 169° South  Level Estimated
01:35PM 9.8766 -58.8840 169° South  Level Estimated
01:36PM 9.8151 -58.8724 169° South  Level Estimated
01:37PM 9.7536 -58.8608 169° South  Level Estimated
01:38PM 9.6921 -58.8493 170° South  Level Estimated
01:39PM 9.6306 -58.8377 170° South  Level Estimated
01:40PM 9.5690 -58.8261 170° South  Level Estimated
01:41PM 9.5075 -58.8146 170° South  Level Estimated
01:42PM 9.4460 -58.8030 170° South  Level Estimated
01:43PM 9.3845 -58.7915 170° South  Level Estimated
01:44PM 9.3230 -58.7800 170° South  Level Estimated
01:45PM 9.2615 -58.7684 170° South  Level Estimated
01:46PM 9.2000 -58.7569 170° South  Level Estimated
01:47PM 9.1384 -58.7454 170° South  Level Estimated
01:48PM 9.0769 -58.7338 170° South  Level Estimated
01:49PM 9.0154 -58.7223 170° South  Level Estimated
01:50PM 8.9539 -58.7108 170° South  Level Estimated
01:51PM 8.8924 -58.6993 170° South  Level Estimated
01:52PM 8.8308 -58.6878 170° South  Level Estimated
01:53PM 8.7693 -58.6763 170° South  Level Estimated
01:54PM 8.7078 -58.6648 170° South  Level Estimated
01:55PM 8.6463 -58.6533 170° South  Level Estimated
01:56PM 8.5848 -58.6418 170° South  Level Estimated
01:57PM 8.5232 -58.6303 170° South  Level Estimated
01:58PM 8.4617 -58.6188 170° South  Level Estimated
01:59PM 8.4002 -58.6073 170° South  Level Estimated
02:00PM 8.3387 -58.5959 170° South  Level Estimated
02:01PM 8.2772 -58.5844 170° South  Level Estimated
02:02PM 8.2156 -58.5729 170° South  Level Estimated
02:03PM 8.1541 -58.5614 170° South  Level Estimated
02:04PM 8.0926 -58.5500 170° South  Level Estimated
02:05PM 8.0311 -58.5385 170° South  Level Estimated
02:06PM 7.9696 -58.5271 170° South  Level Estimated
02:07PM 7.9081 -58.5156 170° South  Level Estimated
02:08PM 7.8465 -58.5042 170° South  Level Estimated
02:09PM 7.7850 -58.4927 170° South  Level Estimated
02:10PM 7.7235 -58.4813 170° South  Level Estimated
02:11PM 7.6620 -58.4698 170° South  Level Estimated
02:12PM 7.6005 -58.4584 170° South  Level Estimated
02:13PM 7.5389 -58.4470 170° South  Level Estimated
02:14PM 7.4774 -58.4355 170° South  Level Estimated
02:15PM 7.4159 -58.4241 170° South  Level Estimated
02:16PM 7.3543 -58.4127 170° South  Level Estimated
02:17PM 7.2928 -58.4013 170° South  Level Estimated
02:18PM 7.2313 -58.3898 170° South  Level Estimated
02:19PM 7.1698 -58.3784 170° South  Level Estimated
02:20PM 7.1082 -58.3670 170° South  Level Estimated
02:21PM 7.0467 -58.3556 170° South  Level Estimated
02:22PM 6.9852 -58.3442 170° South  Level Estimated
02:23PM 6.9236 -58.3328 170° South  Level Estimated
02:24PM 6.8621 -58.3214 170° South  Level Estimated
02:25PM 6.8006 -58.3100 170° South  Level Estimated
02:26PM 6.7390 -58.2986 170° South  Level Estimated
02:27PM 6.6775 -58.2872 170° South  Level Estimated
02:28PM 6.6160 -58.2758 170° South  Level Estimated
02:29PM 6.5545 -58.2645 170° South  Level Estimated
02:30PM 6.4985 -58.2541 170° South  Level Estimated
02:31PM 6.4985 -58.2541 18° North  Level Estimated
02:32PM 6.4985 -58.2541 18° North  Level Estimated
02:33PM 6.4985 -58.2541 18° North  Level Estimated
02:34PM 6.4985 -58.2541 18° North  Level Estimated
02:35PM 6.4985 -58.2541 18° North  Level Estimated
02:36PM 6.4985 -58.2541 18° North  Level Estimated
02:37PM 6.4985 -58.2541 18° North  Level Estimated